Time;durP1;ratioP1;P1;durP2;ratioP2;P2;SDS_P1;SDS_P2;PMS_P1;PMS_P2;Temp;Humidity;BMP_temperature;BMP_pressure;BME280_temperature;BME280_humidity;BME280_pressure;Samples;Min_cycle;Max_cycle;Signal;HPM_P1;HPM_P2
2021/11/14 00:01:34;;;;;;;;;;;;;;;20.56;46.87;101798.22;5019388;28;19918;-88
2021/11/14 00:04:01;;;;;;;;;;;;;;;20.32;47.07;101788.97;5019157;28;19924;-90
2021/11/14 00:06:27;;;;;;;;;;;;;;;20.18;47.38;101795.47;5018708;28;19922;-82
2021/11/14 00:08:52;;;;;;;;;;;;;;;20.43;47.09;101799.16;5003384;28;19924;-86
2021/11/14 00:11:19;;;;;;;;;;;;;;;20.45;46.99;101802.66;5003692;28;20020;-86
2021/11/14 00:13:45;;;;;;;;;;;;;;;20.20;47.52;101806.34;5018854;28;20454;-91
2021/11/14 00:16:11;;;;;;;;;;;;;;;20.51;47.24;101804.94;5018683;28;19975;-87
2021/11/14 00:18:37;;;;;;;;;;;;;;;20.35;47.46;101812.56;5017750;28;20613;-88
2021/11/14 00:21:03;;;;;;;;;;;;;;;20.45;47.49;101810.03;5017980;28;19924;-89
2021/11/14 00:23:28;;;;;;;;;;;;;;;20.36;47.50;101819.84;5017809;28;19949;-90
2021/11/14 00:25:54;;;;;;;;;;;;;;;20.31;47.80;101819.31;5025795;28;20020;-87
2021/11/14 00:28:19;;;;;;;;;;;;;;;19.93;48.70;101829.34;5026610;28;19917;-87
2021/11/14 00:30:44;;;;;;;;;;;;;;;20.28;47.83;101831.38;5005004;28;20362;-87
2021/11/14 00:33:11;;;;;;;;;;;;;;;20.32;47.94;101818.28;5017319;28;20016;-82
2021/11/14 00:35:37;;;;;;;;;;;;;;;20.25;47.96;101825.25;5016005;28;19969;-86
2021/11/14 00:38:02;;;;;;;;;;;;;;;20.39;47.36;101830.59;5015554;28;20403;-89
2021/11/14 00:40:29;;;;;;;;;;;;;;;20.43;47.50;101834.88;5003330;28;19918;-87
2021/11/14 00:42:55;;;;;;;;;;;;;;;20.43;47.50;101834.03;5021491;28;19925;-88
2021/11/14 00:45:22;;;;;;;;;;;;;;;20.57;47.00;101833.00;5021464;28;20351;-89
2021/11/14 00:47:47;;;;;;;;;;;;;;;20.39;47.51;101830.59;5020868;28;19918;-87
2021/11/14 00:50:13;;;;;;;;;;;;;;;19.99;47.86;101837.13;5022429;28;19940;-86
2021/11/14 00:52:40;;;;;;;;;;;;;;;20.16;48.21;101827.66;5022548;28;19922;-85
2021/11/14 00:55:06;;;;;;;;;;;;;;;20.38;47.39;101834.31;5021965;28;19921;-87
2021/11/14 00:57:31;;;;;;;;;;;;;;;20.25;47.91;101837.13;5021918;28;20302;-87
2021/11/14 00:59:57;;;;;;;;;;;;;;;20.27;47.66;101835.13;5006480;28;19941;-87
2021/11/14 01:02:22;;;;;;;;;;;;;;;20.04;48.04;101838.69;5022019;28;19917;-86
2021/11/14 01:04:47;;;;;;;;;;;;;;;20.15;47.92;101831.38;5021564;28;19921;-86
2021/11/14 01:07:12;;;;;;;;;;;;;;;20.48;46.98;101840.91;5021705;28;20409;-88
2021/11/14 01:09:39;;;;;;;;;;;;;;;20.50;46.97;101835.28;5005923;28;19925;-84
2021/11/14 01:12:04;;;;;;;;;;;;;;;20.42;47.37;101840.50;5021249;28;19918;-86
2021/11/14 01:14:30;;;;;;;;;;;;;;;19.90;48.51;101839.63;5006786;28;19917;-87
2021/11/14 01:16:55;;;;;;;;;;;;;;;19.87;48.88;101839.88;5021407;28;20387;-86
2021/11/14 01:19:22;;;;;;;;;;;;;;;20.11;48.16;101838.13;5006350;28;20406;-86
2021/11/14 01:21:47;;;;;;;;;;;;;;;20.22;47.85;101844.72;5020786;28;19926;-86
2021/11/14 01:24:14;;;;;;;;;;;;;;;20.07;48.10;101847.56;5021236;28;19993;-87
2021/11/14 01:26:39;;;;;;;;;;;;;;;19.53;49.31;101854.06;5021077;28;19918;-86
2021/11/14 01:29:04;;;;;;;;;;;;;;;20.09;48.19;101856.56;5021168;28;20405;-87
2021/11/14 01:31:31;;;;;;;;;;;;;;;20.18;47.69;101855.03;5022669;28;20354;-87
2021/11/14 01:33:57;;;;;;;;;;;;;;;20.12;47.93;101850.84;5006697;28;19945;-88
2021/11/14 01:36:22;;;;;;;;;;;;;;;20.40;47.13;101859.84;5021304;28;20334;-88
2021/11/14 01:38:47;;;;;;;;;;;;;;;20.32;47.50;101862.25;5021907;28;19994;-88
2021/11/14 01:41:13;;;;;;;;;;;;;;;20.12;47.74;101864.59;5008018;28;19921;-86
2021/11/14 01:43:40;;;;;;;;;;;;;;;19.99;48.33;101871.97;5022854;28;19918;-86
2021/11/14 01:46:06;;;;;;;;;;;;;;;19.66;49.06;101868.69;5007292;28;19925;-87
2021/11/14 01:48:31;;;;;;;;;;;;;;;19.68;48.91;101873.22;5022194;28;19918;-86
2021/11/14 01:50:58;;;;;;;;;;;;;;;19.83;48.67;101870.28;5022109;28;19922;-88
2021/11/14 01:53:25;;;;;;;;;;;;;;;19.63;49.21;101882.66;5020939;28;19921;-86
2021/11/14 01:55:50;;;;;;;;;;;;;;;19.88;48.75;101885.56;5021621;28;19957;-86
2021/11/14 01:58:18;;;;;;;;;;;;;;;19.32;50.08;101889.34;5022287;28;19984;-88
2021/11/14 02:00:48;;;;;;;;;;;;;;;19.42;49.51;101884.13;5022061;28;19918;-83
2021/11/14 02:03:14;;;;;;;;;;;;;;;18.89;51.58;101887.66;5006552;28;19918;-87
2021/11/14 02:05:39;;;;;;;;;;;;;;;19.68;49.61;101893.31;5021917;28;19917;-85
2021/11/14 02:08:07;;;;;;;;;;;;;;;19.06;51.44;101893.88;5021887;28;19973;-85
2021/11/14 02:10:34;;;;;;;;;;;;;;;19.91;48.97;101896.34;5021241;28;19918;-89
2021/11/14 02:13:00;;;;;;;;;;;;;;;20.11;48.56;101890.31;5006483;28;19964;-86
2021/11/14 02:15:26;;;;;;;;;;;;;;;20.07;48.56;101897.00;5022177;28;19917;-87
2021/11/14 02:17:51;;;;;;;;;;;;;;;20.06;48.36;101899.88;5022353;28;20008;-87
2021/11/14 02:20:18;;;;;;;;;;;;;;;20.04;48.24;101896.38;5023576;28;19921;-85
2021/11/14 02:22:44;;;;;;;;;;;;;;;19.19;50.32;101904.88;5025896;28;19922;-85
2021/11/14 02:25:11;;;;;;;;;;;;;;;19.13;50.73;101912.56;5024386;28;19932;-87
2021/11/14 02:27:37;;;;;;;;;;;;;;;19.90;48.86;101914.69;5020998;28;20357;-86
2021/11/14 02:30:04;;;;;;;;;;;;;;;20.03;48.59;101911.94;5006030;28;19914;-86
2021/11/14 02:32:30;;;;;;;;;;;;;;;19.64;49.07;101921.94;5020677;28;19985;-88
2021/11/14 02:34:55;;;;;;;;;;;;;;;20.06;48.34;101922.72;5021873;28;19968;-86
2021/11/14 02:37:20;;;;;;;;;;;;;;;20.21;47.87;101919.88;5021620;28;19918;-87
2021/11/14 02:39:46;;;;;;;;;;;;;;;20.11;47.93;101925.13;5022687;28;19929;-85
2021/11/14 02:42:11;;;;;;;;;;;;;;;20.07;48.44;101923.63;5023043;28;19918;-84
2021/11/14 02:44:37;;;;;;;;;;;;;;;20.02;48.49;101923.94;5021885;28;19922;-87
2021/11/14 02:47:02;;;;;;;;;;;;;;;20.44;47.60;101924.63;5007620;28;19924;-86
2021/11/14 02:49:27;;;;;;;;;;;;;;;20.58;47.16;101920.84;5022464;28;20278;-88
2021/11/14 02:51:53;;;;;;;;;;;;;;;20.27;47.71;101924.94;5022275;28;20008;-86
2021/11/14 02:54:18;;;;;;;;;;;;;;;20.30;47.68;101935.72;5021982;28;19926;-88
2021/11/14 02:56:43;;;;;;;;;;;;;;;20.15;47.96;101938.53;5022418;28;19925;-87
2021/11/14 02:59:09;;;;;;;;;;;;;;;20.15;48.09;101932.19;5006683;28;19917;-84
2021/11/14 03:01:40;;;;;;;;;;;;;;;20.11;48.45;101931.53;5021723;28;19918;-87
2021/11/14 03:04:06;;;;;;;;;;;;;;;20.18;48.16;101938.34;5022036;28;19917;-89
2021/11/14 03:06:32;;;;;;;;;;;;;;;19.67;49.65;101946.44;5007047;28;19924;-86
2021/11/14 03:08:57;;;;;;;;;;;;;;;19.88;49.05;101940.50;5021261;28;19921;-85
2021/11/14 03:11:23;;;;;;;;;;;;;;;19.69;49.58;101941.75;5021824;28;19964;-86
2021/11/14 03:13:48;;;;;;;;;;;;;;;19.63;50.09;101947.66;5022132;28;19914;-88
2021/11/14 03:16:16;;;;;;;;;;;;;;;19.76;49.85;101944.94;5021884;28;19925;-85
2021/11/14 03:18:41;;;;;;;;;;;;;;;19.97;49.09;101950.84;5022306;28;19925;-86
2021/11/14 03:21:08;;;;;;;;;;;;;;;20.10;48.74;101946.25;5021464;28;19953;-83
2021/11/14 03:23:34;;;;;;;;;;;;;;;19.17;50.99;101959.84;5021452;28;19918;-85
2021/11/14 03:26:01;;;;;;;;;;;;;;;19.71;49.99;101960.84;5005332;28;19936;-86
2021/11/14 03:28:27;;;;;;;;;;;;;;;20.05;48.90;101962.19;5006021;28;19922;-86
2021/11/14 03:30:54;;;;;;;;;;;;;;;20.22;48.45;101962.88;5021449;28;20004;-87
2021/11/14 03:33:19;;;;;;;;;;;;;;;20.20;48.43;101960.22;5021121;28;20444;-85
2021/11/14 03:35:49;;;;;;;;;;;;;;;19.91;49.26;101967.75;5021082;28;19972;-86
2021/11/14 03:38:16;;;;;;;;;;;;;;;20.22;48.54;101960.13;5005577;28;19918;-88
2021/11/14 03:40:41;;;;;;;;;;;;;;;20.18;48.64;101974.06;5020421;28;20298;-88
2021/11/14 03:43:07;;;;;;;;;;;;;;;20.22;48.33;101973.84;5021307;28;19918;-86
2021/11/14 03:45:33;;;;;;;;;;;;;;;20.34;48.05;101978.47;5005577;28;19965;-88
2021/11/14 03:47:58;;;;;;;;;;;;;;;20.32;48.01;101978.59;5021727;28;19918;-85
2021/11/14 03:50:24;;;;;;;;;;;;;;;20.23;48.16;101979.25;5021624;28;20346;-87
2021/11/14 03:52:50;;;;;;;;;;;;;;;20.05;48.71;101981.41;5022362;28;19922;-85
2021/11/14 03:55:15;;;;;;;;;;;;;;;20.02;48.73;101989.88;5021026;28;19910;-86
2021/11/14 03:57:41;;;;;;;;;;;;;;;20.29;48.31;101995.28;5021835;28;20019;-82
2021/11/14 04:00:12;;;;;;;;;;;;;;;20.01;48.60;101997.22;5020878;28;19922;-85
2021/11/14 04:02:38;;;;;;;;;;;;;;;20.17;48.26;101993.41;5020753;28;19921;-88
2021/11/14 04:05:03;;;;;;;;;;;;;;;20.31;47.97;101996.06;5021163;28;20012;-86
2021/11/14 04:07:29;;;;;;;;;;;;;;;20.11;48.56;101991.97;5020828;28;19977;-87
2021/11/14 04:09:54;;;;;;;;;;;;;;;20.00;48.93;101995.47;5020665;28;19917;-88
2021/11/14 04:12:19;;;;;;;;;;;;;;;20.12;48.43;101993.72;5020383;28;19918;-87
2021/11/14 04:14:45;;;;;;;;;;;;;;;19.93;48.85;102009.69;5018607;28;19989;-84
2021/11/14 04:17:10;;;;;;;;;;;;;;;19.58;49.97;102008.38;5019148;28;19972;-85
2021/11/14 04:19:35;;;;;;;;;;;;;;;19.91;48.79;102014.44;5020307;28;19973;-85
2021/11/14 04:22:00;;;;;;;;;;;;;;;19.05;51.31;102013.69;5004764;28;20037;-88
2021/11/14 04:24:26;;;;;;;;;;;;;;;19.79;49.67;102017.06;5020193;28;19930;-86
2021/11/14 04:26:51;;;;;;;;;;;;;;;19.24;51.22;102015.22;5019474;28;19985;-85
2021/11/14 04:29:16;;;;;;;;;;;;;;;19.37;50.43;102024.41;5003517;28;19949;-86
2021/11/14 04:31:41;;;;;;;;;;;;;;;20.12;48.56;102021.19;5001488;28;20375;-85
2021/11/14 04:34:07;;;;;;;;;;;;;;;19.93;49.02;102026.19;5001561;28;19917;-87
2021/11/14 04:36:32;;;;;;;;;;;;;;;18.93;51.70;102033.66;5019137;28;19957;-86
2021/11/14 04:38:57;;;;;;;;;;;;;;;19.58;49.91;102030.31;5018412;28;20294;-86
2021/11/14 04:41:22;;;;;;;;;;;;;;;19.77;49.49;102027.25;5017060;28;20375;-85
2021/11/14 04:43:48;;;;;;;;;;;;;;;19.46;50.15;102026.53;5017921;28;20379;-87
2021/11/14 04:46:13;;;;;;;;;;;;;;;19.80;49.20;102026.16;5017821;28;19986;-86
2021/11/14 04:48:38;;;;;;;;;;;;;;;19.81;49.09;102031.53;5017302;28;19918;-84
2021/11/14 04:51:03;;;;;;;;;;;;;;;20.19;48.10;102027.16;5016532;28;20020;-87
2021/11/14 04:53:29;;;;;;;;;;;;;;;20.07;48.34;102039.88;5017552;28;19913;-87
2021/11/14 04:55:54;;;;;;;;;;;;;;;19.91;48.31;102039.16;5017241;28;19995;-85
2021/11/14 04:58:19;;;;;;;;;;;;;;;20.18;48.25;102037.28;5017510;28;19918;-84
2021/11/14 05:00:46;;;;;;;;;;;;;;;20.08;48.42;102041.63;5017796;28;20016;-85
2021/11/14 05:03:12;;;;;;;;;;;;;;;20.09;48.33;102039.75;5001847;28;19917;-87
2021/11/14 05:05:37;;;;;;;;;;;;;;;20.41;47.59;102037.53;5017267;28;19925;-86
2021/11/14 05:08:05;;;;;;;;;;;;;;;20.48;47.40;102041.56;5016364;28;19941;-85
2021/11/14 05:10:31;;;;;;;;;;;;;;;20.27;47.97;102040.34;5016724;28;20365;-87
2021/11/14 05:12:56;;;;;;;;;;;;;;;20.48;47.33;102044.31;5016986;28;19922;-88
2021/11/14 05:15:21;;;;;;;;;;;;;;;20.15;47.93;102056.69;5001921;28;19918;-87
2021/11/14 05:17:47;;;;;;;;;;;;;;;20.15;47.77;102053.94;5016929;28;20006;-84
2021/11/14 05:20:12;;;;;;;;;;;;;;;19.45;49.84;102059.56;5015245;28;19921;-87
2021/11/14 05:22:37;;;;;;;;;;;;;;;19.39;50.04;102068.22;5000335;28;19922;-88
2021/11/14 05:25:04;;;;;;;;;;;;;;;19.45;49.82;102063.19;5016366;28;19969;-85
2021/11/14 05:27:29;;;;;;;;;;;;;;;19.70;49.29;102068.91;5018048;28;19929;-85
2021/11/14 05:29:55;;;;;;;;;;;;;;;19.39;49.78;102069.06;5022987;28;19918;-85
2021/11/14 05:32:20;;;;;;;;;;;;;;;18.80;52.09;102071.03;5025523;28;20012;-85
2021/11/14 05:34:45;;;;;;;;;;;;;;;18.83;51.69;102076.34;5024715;28;20335;-85
2021/11/14 05:37:10;;;;;;;;;;;;;;;18.23;53.45;102083.63;5019929;28;20424;-86
2021/11/14 05:39:36;;;;;;;;;;;;;;;18.23;54.00;102087.22;5004916;28;20024;-87
2021/11/14 05:42:01;;;;;;;;;;;;;;;18.21;53.79;102091.06;5019450;28;19924;-83
2021/11/14 05:44:26;;;;;;;;;;;;;;;18.03;54.58;102093.03;5018727;28;19921;-89
2021/11/14 05:46:52;;;;;;;;;;;;;;;18.21;53.90;102099.28;5003991;28;20001;-86
2021/11/14 05:49:17;;;;;;;;;;;;;;;18.73;51.97;102104.28;5004385;28;19918;-89
2021/11/14 05:51:43;;;;;;;;;;;;;;;18.76;51.74;102101.34;5003381;28;19917;-86
2021/11/14 05:54:09;;;;;;;;;;;;;;;18.82;51.49;102104.72;5019413;28;19925;-89
2021/11/14 05:56:34;;;;;;;;;;;;;;;18.48;52.44;102112.25;5019459;28;20402;-87
2021/11/14 06:01:53;;;;;;;;;;;;;;;18.69;52.31;102110.06;5005402;28;19925;-88
2021/11/14 06:06:44;;;;;;;;;;;;;;;17.34;55.99;102122.47;5005281;28;19933;-87
2021/11/14 06:09:09;;;;;;;;;;;;;;;17.69;55.05;102123.25;5004474;28;19957;-85
2021/11/14 06:11:34;;;;;;;;;;;;;;;17.93;54.45;102130.16;5019708;28;19924;-87
2021/11/14 06:14:00;;;;;;;;;;;;;;;18.26;53.36;102127.28;5020763;28;20387;-87
2021/11/14 06:16:25;;;;;;;;;;;;;;;18.77;50.74;102129.69;5020705;28;19918;-86
2021/11/14 06:18:50;;;;;;;;;;;;;;;18.18;52.83;102138.69;5020449;28;19913;-85
2021/11/14 06:21:15;;;;;;;;;;;;;;;18.12;53.60;102135.44;5019582;28;20000;-86
2021/11/14 06:23:41;;;;;;;;;;;;;;;18.73;51.36;102139.94;5004407;28;19922;-84
2021/11/14 06:26:06;;;;;;;;;;;;;;;18.23;53.09;102139.28;5018849;28;19980;-84
2021/11/14 06:28:32;;;;;;;;;;;;;;;18.37;52.44;102152.19;5019693;28;19917;-87
2021/11/14 06:30:57;;;;;;;;;;;;;;;17.71;54.42;102151.41;5019010;28;19918;-88
2021/11/14 06:33:23;;;;;;;;;;;;;;;18.41;52.72;102151.00;5019612;28;20338;-85
2021/11/14 06:35:48;;;;;;;;;;;;;;;18.37;52.15;102154.03;5004339;28;19940;-89
2021/11/14 06:38:13;;;;;;;;;;;;;;;18.23;52.42;102160.31;5019405;28;20016;-86
2021/11/14 06:40:39;;;;;;;;;;;;;;;17.33;56.12;102167.22;5018424;28;19954;-82
2021/11/14 06:43:04;;;;;;;;;;;;;;;17.99;53.98;102171.72;5018483;28;20021;-88
2021/11/14 06:45:30;;;;;;;;;;;;;;;17.17;57.01;102178.13;5019012;28;19965;-86
2021/11/14 06:47:55;;;;;;;;;;;;;;;17.78;54.38;102175.69;5018802;28;19925;-85
2021/11/14 06:50:20;;;;;;;;;;;;;;;17.65;55.16;102187.31;5018473;28;19918;-86
2021/11/14 06:52:46;;;;;;;;;;;;;;;17.34;56.53;102189.00;5019080;28;19964;-86
2021/11/14 06:55:12;;;;;;;;;;;;;;;18.23;53.31;102190.47;5003539;28;19928;-85
2021/11/14 06:57:38;;;;;;;;;;;;;;;17.24;55.97;102195.06;5017605;28;19922;-83
2021/11/14 07:00:08;;;;;;;;;;;;;;;17.27;56.54;102195.81;5018880;28;19917;-86
2021/11/14 07:02:33;;;;;;;;;;;;;;;17.48;56.27;102198.31;5004039;28;19914;-87
2021/11/14 07:04:58;;;;;;;;;;;;;;;17.76;54.83;102207.75;5019337;28;19917;-87
2021/11/14 07:07:23;;;;;;;;;;;;;;;17.75;54.67;102208.69;5019158;28;19918;-86
2021/11/14 07:09:49;;;;;;;;;;;;;;;17.50;55.17;102207.34;5019219;28;20359;-85
2021/11/14 07:12:14;;;;;;;;;;;;;;;16.85;57.57;102216.22;5018459;28;19925;-86
2021/11/14 07:14:39;;;;;;;;;;;;;;;16.70;58.26;102234.31;5018120;28;19990;-86
2021/11/14 07:17:04;;;;;;;;;;;;;;;17.40;56.56;102236.16;5018273;28;19918;-85
2021/11/14 07:19:30;;;;;;;;;;;;;;;16.87;58.06;102238.94;5018945;28;19917;-85
2021/11/14 07:21:56;;;;;;;;;;;;;;;17.24;56.41;102242.47;5018394;28;19922;-84
2021/11/14 07:24:23;;;;;;;;;;;;;;;16.70;57.86;102245.25;5019204;28;19925;-88
2021/11/14 07:26:48;;;;;;;;;;;;;;;16.37;59.28;102248.69;5019068;28;19925;-86
2021/11/14 07:29:15;;;;;;;;;;;;;;;16.75;58.28;102253.19;5002259;28;20161;-85
2021/11/14 07:31:40;;;;;;;;;;;;;;;16.30;60.01;102258.16;5018479;28;19917;-86
2021/11/14 07:34:06;;;;;;;;;;;;;;;15.74;60.80;102268.94;5017567;28;19925;-85
2021/11/14 07:36:31;;;;;;;;;;;;;;;15.89;61.46;102270.09;5017743;28;19964;-85
2021/11/14 07:38:57;;;;;;;;;;;;;;;16.02;58.49;102272.25;5018265;28;19965;-86
2021/11/14 07:41:23;;;;;;;;;;;;;;;15.75;61.45;102287.09;5014807;28;19918;-86
2021/11/14 07:43:48;;;;;;;;;;;;;;;15.22;61.89;102287.72;5000457;28;19952;-83
2021/11/14 07:46:14;;;;;;;;;;;;;;;15.37;62.92;102292.47;4999241;28;19944;-88
2021/11/14 07:48:39;;;;;;;;;;;;;;;15.97;59.22;102282.50;5013868;28;19941;-86
2021/11/14 07:51:04;;;;;;;;;;;;;;;16.28;59.12;102290.13;4997792;28;19929;-86
2021/11/14 07:53:31;;;;;;;;;;;;;;;16.33;57.74;102290.78;5013261;28;19918;-84
2021/11/14 07:55:57;;;;;;;;;;;;;;;16.85;57.46;102292.75;5014217;28;19922;-86
2021/11/14 07:58:22;;;;;;;;;;;;;;;16.59;56.95;102291.34;5023302;28;19991;-86
2021/11/14 08:00:47;;;;;;;;;;;;;;;17.25;54.96;102296.19;5025831;28;20016;-85
2021/11/14 08:03:13;;;;;;;;;;;;;;;16.09;58.36;102309.22;5023975;28;20015;-85
2021/11/14 08:05:39;;;;;;;;;;;;;;;17.12;56.22;102306.00;5025382;28;20009;-85
2021/11/14 08:08:05;;;;;;;;;;;;;;;16.51;57.86;102310.84;5027084;28;19965;-81
2021/11/14 08:10:32;;;;;;;;;;;;;;;16.87;56.46;102307.25;5009215;28;19925;-86
2021/11/14 08:12:58;;;;;;;;;;;;;;;17.21;55.36;102310.09;5025612;28;19926;-86
2021/11/14 08:15:23;;;;;;;;;;;;;;;17.74;53.92;102320.06;5007470;28;20259;-87
2021/11/14 08:17:50;;;;;;;;;;;;;;;17.39;54.76;102310.97;5024230;28;20419;-87
2021/11/14 08:20:16;;;;;;;;;;;;;;;17.64;53.77;102311.44;5021068;28;19980;-91
2021/11/14 08:22:41;;;;;;;;;;;;;;;18.11;52.13;102320.78;5020185;28;19921;-87
2021/11/14 08:25:07;;;;;;;;;;;;;;;16.86;54.84;102330.06;4999962;28;20087;-88
2021/11/14 08:27:33;;;;;;;;;;;;;;;17.50;54.58;102333.19;4999479;28;19926;-84
2021/11/14 08:29:59;;;;;;;;;;;;;;;18.17;52.86;102328.66;5000764;28;20295;-89
2021/11/14 08:32:25;;;;;;;;;;;;;;;17.65;54.24;102324.16;5015710;28;20013;-83
2021/11/14 08:34:50;;;;;;;;;;;;;;;17.14;55.87;102328.69;5014438;28;19930;-84
2021/11/14 08:37:15;;;;;;;;;;;;;;;16.44;58.57;102337.59;5015467;28;19918;-87
2021/11/14 08:39:41;;;;;;;;;;;;;;;16.04;59.47;102334.00;5023377;28;19932;-85
2021/11/14 08:42:07;;;;;;;;;;;;;;;15.93;59.37;102331.78;5014853;28;19921;-84
2021/11/14 08:44:32;;;;;;;;;;;;;;;17.20;56.56;102342.03;5031788;28;20303;-82
2021/11/14 08:46:57;;;;;;;;;;;;;;;17.43;55.62;102337.22;5030124;28;19947;-83
2021/11/14 08:49:23;;;;;;;;;;;;;;;17.75;53.75;102335.47;5019824;28;19917;-88
2021/11/14 08:51:49;;;;;;;;;;;;;;;16.96;56.98;102341.47;5033266;28;19918;-87
2021/11/14 08:54:14;;;;;;;;;;;;;;;16.44;57.12;102345.78;5034815;28;19918;-87
2021/11/14 08:56:39;;;;;;;;;;;;;;;16.67;58.08;102343.78;5034567;28;19917;-86
2021/11/14 08:59:05;;;;;;;;;;;;;;;17.30;56.24;102342.44;5019134;28;19917;-86
2021/11/14 09:01:31;;;;;;;;;;;;;;;17.96;53.77;102330.72;5021001;28;19917;-85
2021/11/14 09:03:57;;;;;;;;;;;;;;;16.09;58.87;102352.91;5038831;28;20436;-82
2021/11/14 09:06:22;;;;;;;;;;;;;;;16.75;57.69;102351.59;5038839;28;19943;-88
2021/11/14 09:08:47;;;;;;;;;;;;;;;16.05;59.29;102354.03;5022822;28;19917;-86
2021/11/14 09:11:13;;;;;;;;;;;;;;;18.18;53.94;102351.47;5038957;28;19925;-86
2021/11/14 09:13:39;;;;;;;;;;;;;;;17.15;57.17;102357.78;5039156;28;19921;-87
2021/11/14 09:16:04;;;;;;;;;;;;;;;18.23;53.22;102360.28;5038266;28;20325;-86
2021/11/14 09:18:29;;;;;;;;;;;;;;;17.81;54.27;102354.31;5039333;28;19917;-83
2021/11/14 09:20:57;;;;;;;;;;;;;;;16.71;57.75;102367.22;5020997;28;19918;-83
2021/11/14 09:23:23;;;;;;;;;;;;;;;17.75;54.48;102367.47;5038098;28;19921;-82
2021/11/14 09:25:49;;;;;;;;;;;;;;;17.06;56.76;102363.72;5038120;28;19921;-85
2021/11/14 09:28:15;;;;;;;;;;;;;;;16.80;56.42;102374.09;5038943;28;19922;-87
2021/11/14 09:30:44;;;;;;;;;;;;;;;18.05;52.81;102370.41;5037956;28;19902;-85
2021/11/14 09:33:11;;;;;;;;;;;;;;;16.83;57.21;102380.31;5022649;28;19918;-87
2021/11/14 09:35:36;;;;;;;;;;;;;;;16.98;56.86;102384.16;5037024;28;19918;-86
2021/11/14 09:38:02;;;;;;;;;;;;;;;17.46;54.90;102389.91;5020923;28;19924;-86
2021/11/14 09:40:28;;;;;;;;;;;;;;;16.57;57.55;102392.50;5037372;28;19921;-85
2021/11/14 09:42:53;;;;;;;;;;;;;;;16.86;57.48;102392.91;5036714;28;19918;-85
2021/11/14 09:45:19;;;;;;;;;;;;;;;17.63;55.10;102399.97;5037592;28;19925;-87
2021/11/14 09:47:44;;;;;;;;;;;;;;;17.47;55.19;102399.91;5037306;28;19944;-87
2021/11/14 09:50:10;;;;;;;;;;;;;;;17.61;54.57;102407.38;5037612;28;19972;-87
2021/11/14 09:52:36;;;;;;;;;;;;;;;17.74;54.05;102404.00;5038860;28;19944;-86
2021/11/14 09:55:06;;;;;;;;;;;;;;;17.34;55.53;102416.06;5036502;28;19917;-87
2021/11/14 09:57:31;;;;;;;;;;;;;;;18.05;53.05;102412.38;5037251;28;19968;-81
2021/11/14 09:59:57;;;;;;;;;;;;;;;18.44;51.96;102415.75;5036745;28;19928;-83
2021/11/14 10:02:22;;;;;;;;;;;;;;;17.50;54.80;102420.75;5037135;28;19914;-86
2021/11/14 10:04:47;;;;;;;;;;;;;;;16.94;56.54;102429.00;5021936;28;19918;-85
2021/11/14 10:07:15;;;;;;;;;;;;;;;17.81;52.95;102421.88;5036415;28;19917;-83
2021/11/14 10:09:43;;;;;;;;;;;;;;;16.80;57.21;102426.03;5036462;28;19924;-87
2021/11/14 10:12:12;;;;;;;;;;;;;;;17.59;54.23;102419.38;5035494;28;19918;-82
2021/11/14 10:14:38;;;;;;;;;;;;;;;17.27;54.29;102433.78;5016850;28;19922;-84
2021/11/14 10:17:20;;;;;;;;;;;;;;;16.46;57.26;102424.94;5035776;28;19918;-83
2021/11/14 10:19:56;;;;;;;;;;;;;;;17.96;54.04;102431.16;5035885;28;19918;-86
2021/11/14 10:22:22;;;;;;;;;;;;;;;17.67;54.46;102420.75;5035785;28;19957;-86
2021/11/14 10:24:47;;;;;;;;;;;;;;;17.45;55.75;102434.69;5036010;28;19929;-86
2021/11/14 10:27:13;;;;;;;;;;;;;;;17.17;56.34;102429.72;5035473;28;19922;-86
2021/11/14 10:29:39;;;;;;;;;;;;;;;17.30;54.99;102428.13;5035063;28;20263;-86
2021/11/14 10:32:09;;;;;;;;;;;;;;;18.14;53.70;102429.28;5035360;28;19917;-87
2021/11/14 10:34:43;;;;;;;;;;;;;;;17.50;54.20;102440.78;5035212;28;19965;-85
2021/11/14 10:37:09;;;;;;;;;;;;;;;16.68;55.41;102437.56;5034660;28;20004;-84
2021/11/14 10:39:38;;;;;;;;;;;;;;;16.95;56.16;102452.66;5027159;28;19956;-83
2021/11/14 10:42:10;;;;;;;;;;;;;;;17.43;54.67;102441.19;5018581;28;20263;-81
2021/11/14 10:44:44;;;;;;;;;;;;;;;17.57;54.11;102444.09;5017633;28;20420;-85
2021/11/14 10:47:10;;;;;;;;;;;;;;;17.07;56.27;102461.22;5034534;28;19921;-85
2021/11/14 10:49:35;;;;;;;;;;;;;;;17.88;53.41;102453.44;5020788;28;19924;-85
2021/11/14 10:52:00;;;;;;;;;;;;;;;17.35;55.47;102458.00;5020365;28;19918;-84
2021/11/14 10:54:27;;;;;;;;;;;;;;;17.45;54.56;102459.31;5018943;28;20009;-86
2021/11/14 10:57:00;;;;;;;;;;;;;;;16.43;57.86;102468.78;5023847;28;19921;-85
2021/11/14 10:59:25;;;;;;;;;;;;;;;17.95;52.60;102460.41;5023874;28;19918;-84
2021/11/14 11:01:51;;;;;;;;;;;;;;;17.59;54.09;102464.06;5006097;28;20383;-85
2021/11/14 11:04:22;;;;;;;;;;;;;;;18.23;52.18;102465.25;5032608;28;19929;-82
2021/11/14 11:06:52;;;;;;;;;;;;;;;18.48;52.19;102466.69;5005231;28;19991;-85
2021/11/14 11:09:17;;;;;;;;;;;;;;;18.00;52.43;102469.25;5022907;28;19928;-87
2021/11/14 11:11:43;;;;;;;;;;;;;;;16.92;55.48;102473.78;5025665;28;20353;-85
2021/11/14 11:14:08;;;;;;;;;;;;;;;16.05;59.19;102482.34;5006974;28;19922;-86
2021/11/14 11:16:34;;;;;;;;;;;;;;;16.76;56.50;102476.34;5028058;28;19918;-87
2021/11/14 11:18:59;;;;;;;;;;;;;;;17.74;54.43;102472.44;5021947;28;19930;-86
2021/11/14 11:21:27;;;;;;;;;;;;;;;17.73;53.84;102471.56;5006461;28;19944;-86
2021/11/14 11:23:53;;;;;;;;;;;;;;;17.10;55.83;102472.88;5029997;28;19975;-86
2021/11/14 11:26:18;;;;;;;;;;;;;;;17.30;54.38;102480.13;5031062;28;20477;-86
2021/11/14 11:28:45;;;;;;;;;;;;;;;17.52;55.04;102470.81;5034135;28;20367;-87
2021/11/14 11:31:16;;;;;;;;;;;;;;;16.85;57.40;102475.91;5036658;28;19917;-86
2021/11/14 11:33:43;;;;;;;;;;;;;;;18.50;52.01;102474.81;5035834;28;19929;-87
2021/11/14 11:36:09;;;;;;;;;;;;;;;17.92;53.36;102477.00;5034586;28;19914;-86
2021/11/14 11:38:35;;;;;;;;;;;;;;;17.08;55.34;102480.28;5020466;28;19939;-87
2021/11/14 11:41:02;;;;;;;;;;;;;;;17.65;53.25;102466.47;5035422;28;19920;-86
2021/11/14 11:43:28;;;;;;;;;;;;;;;17.45;55.18;102472.06;5035952;28;19929;-87
2021/11/14 11:46:05;;;;;;;;;;;;;;;18.15;52.18;102472.16;5036102;28;20016;-88
2021/11/14 11:48:35;;;;;;;;;;;;;;;17.50;53.69;102478.22;5026268;28;20286;-84
2021/11/14 11:51:05;;;;;;;;;;;;;;;17.13;55.35;102477.31;5043998;28;19917;-86
2021/11/14 11:53:31;;;;;;;;;;;;;;;17.22;55.58;102482.31;5023022;28;19975;-88
2021/11/14 11:56:15;;;;;;;;;;;;;;;17.98;53.35;102479.41;5035543;28;19921;-90
2021/11/14 11:58:42;;;;;;;;;;;;;;;17.35;54.74;102488.09;5036283;28;20298;-91
2021/11/14 12:01:37;;;;;;;;;;;;;;;16.66;56.72;102493.16;5036202;28;19985;-89
2021/11/14 12:04:11;;;;;;;;;;;;;;;16.56;56.84;102489.09;5035816;28;20314;-90
2021/11/14 12:06:47;;;;;;;;;;;;;;;17.10;55.45;102494.75;5035928;28;19928;-89
2021/11/14 12:09:13;;;;;;;;;;;;;;;17.66;53.37;102490.16;5035977;28;19921;-86
2021/11/14 12:11:40;;;;;;;;;;;;;;;18.07;50.49;102488.97;5020744;28;20362;-89
2021/11/14 12:14:26;;;;;;;;;;;;;;;18.70;50.89;102485.53;5036859;28;19921;-91
2021/11/14 12:16:55;;;;;;;;;;;;;;;17.59;53.88;102494.16;5020609;28;19918;-87
2021/11/14 12:19:24;;;;;;;;;;;;;;;17.18;55.15;102497.09;5036263;28;19918;-87
2021/11/14 12:21:53;;;;;;;;;;;;;;;17.02;55.16;102491.53;5034961;28;19945;-86
2021/11/14 12:24:18;;;;;;;;;;;;;;;18.23;52.21;102497.28;5019584;28;19925;-91
2021/11/14 12:26:44;;;;;;;;;;;;;;;18.33;51.81;102493.06;5035540;28;19965;-86
2021/11/14 12:29:09;;;;;;;;;;;;;;;17.46;53.43;102495.75;5035383;28;19925;-87
2021/11/14 12:31:45;;;;;;;;;;;;;;;18.30;51.83;102490.50;5020006;28;19924;-89
2021/11/14 12:34:18;;;;;;;;;;;;;;;18.11;51.99;102492.44;5034675;28;20007;-89
2021/11/14 12:36:44;;;;;;;;;;;;;;;18.66;50.73;102491.28;5034985;28;20470;-90